Time;durP1;ratioP1;P1;durP2;ratioP2;P2;SDS_P1;SDS_P2;PMS_P1;PMS_P2;Temp;Humidity;BMP_temperature;BMP_pressure;BME280_temperature;BME280_humidity;BME280_pressure;Samples;Min_cycle;Max_cycle;Signal;HPM_P1;HPM_P2
2021/04/30 00:02:47;;;;;;;11.55;5.35;;;20.90;47.20;;;;;;6248378;28;20021;-75
2021/04/30 00:05:48;;;;;;;11.20;5.45;;;20.90;47.20;;;;;;6247327;28;20022;-75
2021/04/30 00:08:49;;;;;;;12.07;5.20;;;20.90;47.20;;;;;;6248138;28;20021;-75
2021/04/30 00:11:49;;;;;;;11.68;5.18;;;20.90;47.20;;;;;;6248008;28;20025;-74
2021/04/30 00:14:50;;;;;;;11.48;5.55;;;20.90;47.20;;;;;;6248100;28;20025;-75
2021/04/30 00:17:51;;;;;;;11.45;4.93;;;20.90;47.20;;;;;;6247974;28;20518;-75
2021/04/30 00:20:56;;;;;;;10.95;5.47;;;20.90;47.20;;;;;;6247758;28;20037;-75
2021/04/30 00:23:57;;;;;;;12.73;5.60;;;20.90;47.10;;;;;;6246047;28;20033;-75
2021/04/30 00:26:58;;;;;;;12.52;5.50;;;20.90;47.10;;;;;;6248164;28;20035;-75
2021/04/30 00:29:59;;;;;;;10.43;4.85;;;20.90;47.10;;;;;;6247783;28;20025;-75
2021/04/30 00:32:59;;;;;;;9.20;4.72;;;20.90;47.10;;;;;;6247945;28;20029;-75
2021/04/30 00:36:01;;;;;;;8.73;4.55;;;20.90;47.10;;;;;;6247521;28;20453;-76
2021/04/30 00:39:03;;;;;;;9.38;4.45;;;20.90;47.10;;;;;;6247575;28;20101;-75
2021/04/30 00:42:05;;;;;;;7.25;3.90;;;20.90;47.20;;;;;;6248097;28;20095;-75
2021/04/30 00:45:07;;;;;;;7.85;4.13;;;20.90;47.20;;;;;;6247423;28;20444;-76
2021/04/30 00:48:10;;;;;;;8.75;4.47;;;20.90;47.20;;;;;;6246240;28;20480;-75
2021/04/30 00:51:10;;;;;;;9.07;4.10;;;20.90;47.20;;;;;;6247263;28;20033;-75
2021/04/30 00:54:11;;;;;;;8.43;4.63;;;20.90;47.20;;;;;;6247186;28;20057;-76
2021/04/30 00:57:12;;;;;;;8.10;4.10;;;20.90;47.10;;;;;;6247005;28;20128;-75
2021/04/30 01:00:13;;;;;;;8.73;4.13;;;20.90;47.10;;;;;;6246965;28;20455;-75
2021/04/30 01:03:14;;;;;;;8.57;4.40;;;20.90;47.10;;;;;;6247055;28;20037;-75
2021/04/30 01:06:15;;;;;;;7.88;4.25;;;20.90;47.10;;;;;;6245164;28;20480;-75
2021/04/30 01:09:15;;;;;;;7.90;3.97;;;20.90;47.10;;;;;;6242136;28;20053;-75
2021/04/30 01:12:16;;;;;;;9.38;4.20;;;20.90;47.10;;;;;;6246340;28;20021;-75
2021/04/30 01:15:18;;;;;;;9.50;4.13;;;20.90;47.20;;;;;;6246904;28;20037;-75
2021/04/30 01:18:18;;;;;;;7.63;3.95;;;20.90;47.10;;;;;;6246631;28;20028;-75
2021/04/30 01:21:23;;;;;;;6.97;3.22;;;20.90;47.20;;;;;;6246342;28;20022;-75
2021/04/30 01:24:24;;;;;;;5.50;3.28;;;20.90;47.10;;;;;;6246248;28;20045;-74
2021/04/30 01:27:25;;;;;;;5.68;3.30;;;20.90;47.10;;;;;;6246304;28;20026;-76
2021/04/30 01:30:28;;;;;;;6.05;3.05;;;20.80;47.00;;;;;;6246203;28;20109;-75
2021/04/30 01:33:28;;;;;;;6.40;3.13;;;20.90;47.10;;;;;;6245607;28;20040;-76
2021/04/30 01:36:31;;;;;;;5.47;2.80;;;20.90;47.20;;;;;;6244989;28;20021;-75
2021/04/30 01:39:31;;;;;;;7.05;3.33;;;20.80;47.10;;;;;;6246207;28;20029;-75
2021/04/30 01:42:32;;;;;;;5.82;2.90;;;20.80;47.00;;;;;;6246612;28;20053;-75
2021/04/30 01:45:42;;;;;;;5.97;3.22;;;20.80;46.90;;;;;;6246762;28;20033;-75
2021/04/30 01:48:43;;;;;;;5.10;3.10;;;20.80;47.00;;;;;;6246640;28;20024;-76
2021/04/30 01:51:44;;;;;;;5.20;3.10;;;20.80;47.00;;;;;;6246954;28;20025;-76
2021/04/30 01:54:48;;;;;;;8.88;2.95;;;20.80;47.00;;;;;;6246538;28;20022;-76
2021/04/30 01:57:49;;;;;;;5.80;2.97;;;20.90;47.10;;;;;;6246836;28;20095;-75
2021/04/30 02:00:50;;;;;;;5.65;2.83;;;20.80;46.90;;;;;;6243963;28;20025;-75
2021/04/30 02:03:51;;;;;;;4.03;2.47;;;20.80;47.00;;;;;;6245113;28;20112;-75
2021/04/30 02:06:52;;;;;;;6.70;2.80;;;20.80;46.90;;;;;;6243441;28;20021;-75
2021/04/30 02:09:52;;;;;;;5.93;2.70;;;20.90;47.00;;;;;;6245322;28;20480;-74
2021/04/30 02:12:53;;;;;;;5.47;2.83;;;20.80;46.90;;;;;;6245500;28;20036;-76
2021/04/30 02:15:55;;;;;;;5.68;2.95;;;20.90;47.00;;;;;;6244117;28;20025;-75
2021/04/30 02:18:56;;;;;;;3.90;2.28;;;20.90;47.10;;;;;;6245470;28;20029;-75
2021/04/30 02:21:57;;;;;;;5.55;2.55;;;20.80;46.90;;;;;;6244910;28;20063;-74
2021/04/30 02:24:58;;;;;;;4.97;2.60;;;20.80;47.60;;;;;;6243010;28;20103;-75
2021/04/30 02:28:00;;;;;;;3.72;2.30;;;20.80;47.00;;;;;;6245238;28;20479;-75
2021/04/30 02:31:00;;;;;;;3.65;2.40;;;20.80;46.90;;;;;;6245043;28;20068;-75
2021/04/30 02:34:01;;;;;;;4.65;2.47;;;20.80;46.90;;;;;;6245266;28;20418;-75
2021/04/30 02:37:01;;;;;;;4.40;2.13;;;20.80;46.90;;;;;;6245237;28;20455;-75
2021/04/30 02:40:05;;;;;;;4.90;2.70;;;20.90;47.00;;;;;;6244841;28;20504;-75
2021/04/30 02:43:08;;;;;;;3.90;2.15;;;20.80;46.90;;;;;;6244781;28;20056;-75
2021/04/30 02:46:09;;;;;;;4.25;2.30;;;20.90;47.00;;;;;;6244613;28;20022;-75
2021/04/30 02:49:14;;;;;;;4.50;2.30;;;20.90;47.00;;;;;;6244776;28;20018;-75
2021/04/30 02:52:16;;;;;;;3.92;2.40;;;20.90;47.10;;;;;;6245240;28;20037;-75
2021/04/30 02:55:21;;;;;;;3.92;2.13;;;20.90;47.10;;;;;;6244866;28;20017;-75
2021/04/30 02:58:22;;;;;;;3.95;2.30;;;20.80;47.00;;;;;;6244743;28;20029;-75
2021/04/30 03:01:22;;;;;;;4.18;1.95;;;20.80;46.90;;;;;;6244797;28;20091;-76
2021/04/30 03:04:23;;;;;;;4.60;2.13;;;20.80;47.00;;;;;;6244418;28;20057;-75
2021/04/30 03:07:24;;;;;;;3.78;1.90;;;20.90;47.10;;;;;;6244509;28;20384;-75
2021/04/30 03:10:25;;;;;;;5.57;1.95;;;20.80;47.00;;;;;;6244302;28;20491;-74
2021/04/30 03:13:25;;;;;;;3.67;2.03;;;20.90;47.00;;;;;;6244429;28;20029;-75
2021/04/30 03:16:26;;;;;;;3.17;1.90;;;20.80;47.00;;;;;;6244465;28;20522;-75
2021/04/30 03:19:26;;;;;;;2.72;1.67;;;20.80;47.00;;;;;;6242671;28;20045;-75
2021/04/30 03:22:27;;;;;;;3.45;1.75;;;20.80;47.00;;;;;;6244419;28;20033;-75
2021/04/30 03:25:27;;;;;;;4.88;2.47;;;20.80;46.90;;;;;;6244092;28;20026;-75
2021/04/30 03:28:28;;;;;;;3.42;1.83;;;20.80;47.00;;;;;;6245031;28;20060;-75
2021/04/30 03:31:29;;;;;;;2.60;1.67;;;20.80;47.00;;;;;;6245135;28;20022;-75
2021/04/30 03:34:30;;;;;;;3.25;2.10;;;20.90;47.00;;;;;;6244270;28;20061;-75
2021/04/30 03:37:30;;;;;;;2.88;2.03;;;20.80;47.00;;;;;;6244552;28;20032;-75
2021/04/30 03:40:31;;;;;;;3.78;2.05;;;20.80;47.00;;;;;;6244106;28;20424;-75
2021/04/30 03:43:31;;;;;;;2.78;1.88;;;20.80;47.00;;;;;;6244171;28;20095;-75
2021/04/30 03:46:32;;;;;;;2.00;1.42;;;20.80;47.00;;;;;;6244000;28;20057;-75
2021/04/30 03:49:33;;;;;;;2.97;1.60;;;20.90;47.10;;;;;;6244646;28;20056;-75
2021/04/30 03:52:33;;;;;;;2.85;1.70;;;20.90;47.10;;;;;;6242184;28;20492;-75
2021/04/30 03:55:34;;;;;;;2.67;1.70;;;20.80;47.00;;;;;;6244347;28;20041;-75
2021/04/30 03:58:34;;;;;;;3.60;1.80;;;20.90;47.00;;;;;;6245035;28;20036;-75
2021/04/30 04:01:35;;;;;;;2.75;1.55;;;20.80;47.00;;;;;;6248764;28;20140;-75
2021/04/30 04:04:36;;;;;;;2.78;1.70;;;20.90;47.10;;;;;;6246894;28;20391;-75
2021/04/30 04:07:36;;;;;;;3.72;1.95;;;20.90;47.10;;;;;;6246602;28;20025;-75
2021/04/30 04:10:37;;;;;;;1.95;1.38;;;20.90;47.10;;;;;;6248341;28;20026;-75
2021/04/30 04:13:37;;;;;;;2.38;1.77;;;20.80;47.00;;;;;;6247978;28;20072;-74
2021/04/30 04:16:38;;;;;;;2.20;1.45;;;20.90;47.10;;;;;;6248416;28;20021;-75
2021/04/30 04:19:38;;;;;;;2.08;1.42;;;20.90;47.10;;;;;;6247701;28;20084;-75
2021/04/30 04:22:39;;;;;;;2.38;1.58;;;20.90;47.10;;;;;;6247921;28;20017;-75
2021/04/30 04:25:40;;;;;;;2.78;1.45;;;20.80;47.00;;;;;;6247791;28;20025;-75
2021/04/30 04:28:41;;;;;;;3.25;1.50;;;20.90;47.10;;;;;;6248501;28;20020;-75
2021/04/30 04:31:41;;;;;;;3.72;1.63;;;20.90;47.10;;;;;;6237174;28;20029;-74
2021/04/30 04:34:42;;;;;;;2.15;1.33;;;20.90;47.10;;;;;;6240795;28;20055;-75
2021/04/30 04:37:44;;;;;;;2.83;1.10;;;20.80;47.00;;;;;;6245386;28;20052;-75
2021/04/30 04:40:44;;;;;;;2.00;1.25;;;20.90;47.10;;;;;;6246645;28;20033;-75
2021/04/30 04:43:45;;;;;;;1.80;1.23;;;20.90;47.10;;;;;;6248811;28;20517;-75
2021/04/30 04:46:46;;;;;;;1.77;1.23;;;20.90;47.10;;;;;;6254172;28;20030;-75
2021/04/30 04:49:46;;;;;;;1.80;1.27;;;20.80;47.00;;;;;;6245521;28;20034;-75
2021/04/30 04:52:47;;;;;;;4.07;1.30;;;20.90;47.10;;;;;;6245769;28;20033;-76
2021/04/30 04:55:47;;;;;;;2.13;1.17;;;20.80;47.00;;;;;;6245663;28;20064;-76
2021/04/30 04:58:49;;;;;;;1.75;1.20;;;20.80;47.00;;;;;;6245879;28;20175;-76
2021/04/30 05:01:50;;;;;;;1.83;1.10;;;20.90;47.10;;;;;;6243352;28;20086;-76
2021/04/30 05:04:50;;;;;;;2.03;1.30;;;20.90;47.10;;;;;;6247293;28;20025;-75
2021/04/30 05:07:51;;;;;;;2.22;1.33;;;20.90;47.10;;;;;;6246600;28;20455;-75
2021/04/30 05:10:51;;;;;;;1.77;1.00;;;20.80;47.00;;;;;;6245792;28;20083;-75
2021/04/30 05:13:53;;;;;;;1.70;1.20;;;20.80;47.00;;;;;;6245562;28;20531;-75
2021/04/30 05:16:54;;;;;;;2.63;1.42;;;20.90;47.10;;;;;;6246266;28;20530;-76
2021/04/30 05:19:54;;;;;;;2.58;1.13;;;20.90;47.10;;;;;;6245118;28;20041;-75
2021/04/30 05:22:55;;;;;;;2.65;1.42;;;20.90;47.10;;;;;;6243117;28;20065;-75
2021/04/30 05:25:55;;;;;;;1.52;1.15;;;20.90;47.10;;;;;;6244965;28;20104;-75
2021/04/30 05:28:57;;;;;;;1.55;1.20;;;20.90;47.10;;;;;;6245591;28;20103;-75
2021/04/30 05:31:58;;;;;;;1.48;1.00;;;20.90;47.10;;;;;;6243868;28;20029;-75
2021/04/30 05:35:00;;;;;;;2.15;1.27;;;20.90;47.00;;;;;;6244605;28;20068;-75
2021/04/30 05:38:01;;;;;;;2.28;1.27;;;20.90;47.10;;;;;;6245114;28;20372;-76
2021/04/30 05:41:01;;;;;;;1.38;1.10;;;20.90;47.00;;;;;;6245241;28;20049;-76
2021/04/30 05:44:02;;;;;;;1.55;1.02;;;20.90;47.10;;;;;;6244767;28;20476;-76
2021/04/30 05:47:03;;;;;;;1.42;0.93;;;20.90;47.10;;;;;;6244815;28;20037;-75
2021/04/30 05:50:05;;;;;;;1.38;0.88;;;20.90;47.10;;;;;;6245694;28;20030;-75
2021/04/30 05:53:05;;;;;;;3.75;1.10;;;20.90;47.20;;;;;;6244327;28;20025;-77
2021/04/30 05:56:06;;;;;;;1.77;1.00;;;20.90;47.20;;;;;;6243757;28;20029;-76
2021/04/30 05:59:06;;;;;;;2.08;1.00;;;20.90;47.10;;;;;;6243261;28;20037;-76
2021/04/30 06:02:07;;;;;;;2.50;1.10;;;20.90;47.90;;;;;;6239258;28;20033;-75
2021/04/30 06:05:08;;;;;;;1.35;0.82;;;20.90;47.20;;;;;;6243770;28;20034;-75
2021/04/30 06:08:08;;;;;;;4.38;1.25;;;20.90;47.20;;;;;;6245608;28;20025;-76
2021/04/30 06:11:09;;;;;;;1.00;0.70;;;20.90;47.20;;;;;;6245421;28;20022;-75
2021/04/30 06:14:11;;;;;;;2.00;1.00;;;20.90;47.20;;;;;;6244919;28;20021;-75
2021/04/30 06:17:12;;;;;;;4.13;0.90;;;20.90;47.10;;;;;;6243682;28;20033;-75
2021/04/30 06:20:13;;;;;;;1.30;0.98;;;20.90;47.00;;;;;;6244845;28;20049;-75
2021/04/30 06:23:14;;;;;;;1.30;0.90;;;21.00;47.30;;;;;;6244554;28;20405;-77
2021/04/30 06:26:14;;;;;;;5.40;0.80;;;21.00;47.10;;;;;;6244190;28;20021;-75
2021/04/30 06:29:15;;;;;;;2.13;1.10;;;21.00;47.10;;;;;;6245164;28;20098;-75
2021/04/30 06:32:15;;;;;;;3.35;0.90;;;21.00;47.00;;;;;;6243081;28;20025;-75
2021/04/30 06:35:16;;;;;;;1.20;0.80;;;21.10;47.00;;;;;;6245046;28;20065;-75
2021/04/30 06:38:16;;;;;;;2.47;1.05;;;21.10;47.00;;;;;;6244379;28;20496;-75
2021/04/30 06:41:17;;;;;;;1.90;1.00;;;21.10;47.00;;;;;;6240530;28;20075;-74
2021/04/30 06:44:17;;;;;;;1.50;0.98;;;21.00;47.00;;;;;;6241059;28;20025;-75
2021/04/30 06:47:18;;;;;;;4.60;1.00;;;21.10;47.00;;;;;;6240425;28;20029;-75
2021/04/30 06:50:19;;;;;;;4.00;0.90;;;21.10;47.10;;;;;;6243739;28;20425;-75
2021/04/30 06:53:19;;;;;;;2.67;1.15;;;21.10;47.80;;;;;;6241022;28;20372;-75
2021/04/30 06:56:20;;;;;;;1.75;0.95;;;21.10;47.10;;;;;;6242173;28;20030;-76
2021/04/30 06:59:21;;;;;;;1.73;0.93;;;21.10;47.10;;;;;;6242114;28;20030;-76
2021/04/30 07:02:21;;;;;;;2.67;1.05;;;21.10;47.10;;;;;;6243106;28;20054;-76
2021/04/30 07:05:22;;;;;;;1.77;0.90;;;21.00;47.10;;;;;;6243680;28;20029;-76
2021/04/30 07:08:23;;;;;;;1.98;0.90;;;21.00;47.10;;;;;;6245183;28;20087;-76
2021/04/30 07:11:23;;;;;;;3.97;1.00;;;21.00;47.10;;;;;;6242892;28;20023;-76
2021/04/30 07:14:24;;;;;;;1.58;0.85;;;21.00;47.80;;;;;;6243295;28;20028;-75
2021/04/30 07:17:24;;;;;;;1.38;0.80;;;21.00;47.10;;;;;;6243927;28;20056;-76
2021/04/30 07:20:25;;;;;;;1.15;0.93;;;21.00;47.10;;;;;;6244616;28;20038;-75
2021/04/30 07:23:26;;;;;;;1.27;0.90;;;21.00;47.20;;;;;;6244751;28;20036;-75
2021/04/30 07:26:27;;;;;;;1.10;0.60;;;21.00;47.20;;;;;;6244630;28;20029;-75
2021/04/30 07:29:28;;;;;;;2.28;0.60;;;21.00;47.10;;;;;;6239728;28;20368;-76
2021/04/30 07:32:28;;;;;;;2.00;1.27;;;21.00;47.20;;;;;;6242249;28;20514;-75
2021/04/30 07:35:29;;;;;;;1.90;0.70;;;21.00;47.10;;;;;;6246101;28;20060;-76
2021/04/30 07:38:29;;;;;;;1.55;1.00;;;21.00;47.10;;;;;;6248023;28;20029;-76
2021/04/30 07:41:30;;;;;;;1.85;0.70;;;21.00;47.10;;;;;;6247196;28;20132;-75
2021/04/30 07:44:30;;;;;;;1.23;0.80;;;21.00;47.10;;;;;;6247278;28;20079;-75
2021/04/30 07:47:31;;;;;;;1.10;0.80;;;21.00;47.10;;;;;;6244835;28;20033;-75
2021/04/30 07:50:32;;;;;;;1.20;0.80;;;21.00;47.10;;;;;;6248133;28;20035;-76
2021/04/30 07:53:33;;;;;;;0.60;0.60;;;21.00;47.20;;;;;;6246932;28;20070;-75
2021/04/30 07:56:33;;;;;;;1.17;0.70;;;21.00;47.10;;;;;;6248325;28;20025;-75
2021/04/30 07:59:34;;;;;;;1.38;0.73;;;21.00;47.20;;;;;;6244418;28;20030;-75
2021/04/30 08:02:34;;;;;;;1.10;1.00;;;21.00;47.10;;;;;;6246575;28;20084;-75
2021/04/30 08:05:35;;;;;;;2.50;1.60;;;20.90;46.00;;;;;;6246705;28;20025;-75
2021/04/30 08:08:37;;;;;;;6.75;4.20;;;20.90;45.60;;;;;;6246090;28;20503;-75
2021/04/30 08:11:38;;;;;;;6.07;3.75;;;20.90;43.40;;;;;;6245775;28;20029;-77
2021/04/30 08:14:38;;;;;;;6.88;3.75;;;20.90;44.00;;;;;;6245811;28;20048;-75
2021/04/30 08:17:39;;;;;;;6.13;3.60;;;21.00;44.50;;;;;;6247439;28;20510;-76
2021/04/30 08:20:40;;;;;;;6.38;3.30;;;21.00;44.80;;;;;;6246018;28;20173;-76
2021/04/30 08:23:40;;;;;;;6.97;3.25;;;21.00;44.80;;;;;;6246500;28;20030;-77
2021/04/30 08:26:41;;;;;;;5.00;2.78;;;20.90;43.80;;;;;;6246519;28;20033;-76
2021/04/30 08:29:41;;;;;;;6.18;3.15;;;21.00;44.70;;;;;;6246907;28;20543;-75
2021/04/30 08:32:42;;;;;;;8.07;3.58;;;21.00;45.00;;;;;;6246495;28;20419;-75
2021/04/30 08:35:43;;;;;;;5.95;3.10;;;21.00;44.30;;;;;;6245846;28;20049;-75
2021/04/30 08:38:43;;;;;;;7.18;3.00;;;21.00;45.00;;;;;;6244310;28;20387;-75
2021/04/30 08:41:44;;;;;;;5.35;3.13;;;21.00;45.40;;;;;;6243794;28;20041;-75
2021/04/30 08:44:45;;;;;;;5.40;2.70;;;21.00;45.30;;;;;;6244648;28;20036;-75
2021/04/30 08:47:46;;;;;;;4.00;2.50;;;21.00;45.50;;;;;;6246467;28;20074;-75
2021/04/30 08:50:47;;;;;;;3.53;2.65;;;21.00;45.90;;;;;;6244718;28;20092;-76
2021/04/30 08:53:47;;;;;;;5.15;2.30;;;21.00;45.70;;;;;;6244947;28;20041;-75
2021/04/30 08:56:51;;;;;;;8.07;2.55;;;21.00;45.70;;;;;;6246400;28;20537;-75
2021/04/30 08:59:59;;;;;;;5.70;2.40;;;21.00;45.70;;;;;;6244312;28;20471;-76
2021/04/30 09:03:00;;;;;;;4.68;2.45;;;21.00;46.00;;;;;;6244742;28;20033;-75
2021/04/30 09:06:02;;;;;;;7.00;2.50;;;21.00;46.00;;;;;;6243086;28;20365;-75
2021/04/30 09:09:08;;;;;;;4.25;2.60;;;21.00;45.90;;;;;;6245269;28;20025;-75
2021/04/30 09:12:15;;;;;;;3.72;2.33;;;21.00;46.10;;;;;;6244602;28;20032;-76
2021/04/30 09:15:22;;;;;;;3.00;2.28;;;21.00;46.10;;;;;;6240379;28;20032;-75
2021/04/30 09:18:28;;;;;;;3.38;2.13;;;21.00;46.20;;;;;;6246456;28;20078;-75
2021/04/30 09:21:28;;;;;;;9.25;2.30;;;21.00;46.20;;;;;;6243642;28;20160;-77
2021/04/30 09:24:29;;;;;;;7.20;2.35;;;21.00;45.90;;;;;;6245324;28;20061;-75
2021/04/30 09:27:40;;;;;;;3.13;2.05;;;21.00;46.10;;;;;;6244971;28;20053;-76
2021/04/30 09:30:40;;;;;;;2.78;1.65;;;21.00;46.20;;;;;;6244152;28;20028;-74
2021/04/30 09:33:41;;;;;;;3.42;1.95;;;21.00;46.20;;;;;;6243122;28;20088;-75
2021/04/30 09:37:03;;;;;;;2.20;1.70;;;21.00;46.30;;;;;;6242319;28;20037;-74
2021/04/30 09:40:04;;;;;;;4.10;2.10;;;21.00;46.30;;;;;;6234641;28;20030;-77
2021/04/30 09:43:07;;;;;;;4.50;1.70;;;21.00;46.30;;;;;;6242793;28;20514;-75
2021/04/30 09:46:28;;;;;;;3.78;2.30;;;21.00;46.30;;;;;;6245096;28;20132;-75
2021/04/30 09:49:33;;;;;;;3.22;2.00;;;21.00;46.30;;;;;;6238077;28;20379;-74
2021/04/30 09:52:33;;;;;;;3.30;2.10;;;21.00;46.30;;;;;;6241711;28;20030;-75
2021/04/30 09:55:47;;;;;;;3.17;1.90;;;21.00;46.30;;;;;;6243476;28;20048;-75
2021/04/30 09:58:47;;;;;;;4.28;1.70;;;21.00;46.30;;;;;;6244906;28;20391;-76
2021/04/30 10:02:01;;;;;;;3.15;2.05;;;21.00;46.30;;;;;;6243705;28;20037;-77
2021/04/30 10:05:21;;;;;;;2.67;1.60;;;21.00;46.30;;;;;;6243569;28;20049;-76
2021/04/30 10:08:22;;;;;;;6.38;2.05;;;21.00;46.30;;;;;;6244604;28;20033;-76
2021/04/30 10:11:31;;;;;;;3.40;1.83;;;21.00;46.10;;;;;;6244073;28;20551;-76
2021/04/30 10:14:32;;;;;;;3.03;1.88;;;20.90;44.90;;;;;;6244904;28;20022;-75
2021/04/30 10:17:33;;;;;;;5.65;2.30;;;20.90;44.50;;;;;;6243019;28;20034;-76
2021/04/30 10:20:33;;;;;;;3.28;2.00;;;20.90;42.30;;;;;;6244632;28;20025;-74
2021/04/30 10:23:35;;;;;;;3.17;1.60;;;20.90;42.90;;;;;;6243425;28;20105;-75
2021/04/30 10:26:35;;;;;;;6.43;1.88;;;20.90;41.00;;;;;;6243767;28;20053;-75
2021/04/30 10:29:37;;;;;;;3.47;1.55;;;20.90;41.70;;;;;;6242710;28;20032;-75
2021/04/30 10:32:44;;;;;;;3.90;1.80;;;20.90;42.60;;;;;;6242560;28;20021;-75
2021/04/30 10:35:59;;;;;;;2.28;1.60;;;20.90;42.70;;;;;;6244305;28;20049;-77
2021/04/30 10:39:03;;;;;;;2.72;1.67;;;21.00;43.60;;;;;;6241774;28;20362;-76
2021/04/30 10:42:11;;;;;;;2.65;1.30;;;21.00;44.10;;;;;;6240746;28;20029;-76
2021/04/30 10:45:15;;;;;;;5.10;1.75;;;21.00;43.70;;;;;;6244542;28;20427;-76
2021/04/30 10:48:15;;;;;;;4.85;1.60;;;21.00;43.70;;;;;;6243584;28;20040;-76
2021/04/30 10:51:16;;;;;;;2.45;1.25;;;21.00;44.10;;;;;;6242862;28;20567;-76
2021/04/30 10:54:26;;;;;;;1.67;1.27;;;21.00;44.70;;;;;;6241381;28;20030;-76
2021/04/30 10:57:27;;;;;;;2.55;1.75;;;21.00;44.60;;;;;;6244076;28;20368;-75
2021/04/30 11:00:41;;;;;;;3.97;1.50;;;21.00;44.80;;;;;;6244317;28;20044;-77
2021/04/30 11:03:41;;;;;;;3.47;1.80;;;21.00;44.90;;;;;;6241777;28;20022;-75
2021/04/30 11:06:44;;;;;;;1.88;1.25;;;21.00;44.90;;;;;;6242042;28;20041;-76
2021/04/30 11:09:44;;;;;;;5.07;1.67;;;21.00;45.30;;;;;;6248427;28;20057;-77
2021/04/30 11:13:09;;;;;;;3.30;1.50;;;21.00;44.90;;;;;;6248236;28;20387;-77
2021/04/30 11:16:09;;;;;;;7.88;2.10;;;21.10;45.00;;;;;;6242544;28;20038;-75
2021/04/30 11:19:10;;;;;;;4.75;1.60;;;21.10;44.60;;;;;;6245283;28;20126;-75
2021/04/30 11:22:13;;;;;;;3.03;1.60;;;21.10;45.00;;;;;;6248215;28;20095;-76
2021/04/30 11:25:14;;;;;;;9.20;1.50;;;21.10;45.00;;;;;;6248131;28;20025;-75
2021/04/30 11:28:15;;;;;;;8.52;2.72;;;21.10;45.10;;;;;;6249095;28;20073;-76
2021/04/30 11:31:31;;;;;;;8.73;2.22;;;21.10;45.00;;;;;;6246372;28;20323;-76
2021/04/30 11:34:49;;;;;;;7.85;2.50;;;21.10;45.00;;;;;;6246576;28;20399;-76
2021/04/30 11:37:50;;;;;;;7.35;2.55;;;21.10;45.10;;;;;;6232161;28;20025;-77
2021/04/30 11:40:58;;;;;;;36.30;3.65;;;21.10;45.20;;;;;;6246218;28;20574;-77
2021/04/30 11:43:58;;;;;;;155.02;8.15;;;21.10;45.20;;;;;;6245990;28;20056;-75
2021/04/30 11:47:05;;;;;;;87.15;8.13;;;21.10;44.70;;;;;;6247277;28;20037;-75
2021/04/30 11:50:09;;;;;;;65.72;5.13;;;21.10;45.10;;;;;;6247296;28;20562;-76
2021/04/30 11:53:13;;;;;;;71.97;6.13;;;21.10;45.20;;;;;;6245762;28;20075;-76
2021/04/30 11:56:17;;;;;;;34.50;4.00;;;21.10;45.20;;;;;;6247030;28;20072;-75
2021/04/30 11:59:19;;;;;;;44.45;5.72;;;21.10;45.20;;;;;;6246117;28;20041;-76
2021/04/30 12:02:24;;;;;;;44.53;5.22;;;21.10;44.20;;;;;;6246756;28;20084;-76
2021/04/30 12:05:25;;;;;;;35.90;4.10;;;21.10;44.20;;;;;;6246888;28;20022;-75
2021/04/30 12:08:26;;;;;;;25.05;3.97;;;21.10;44.90;;;;;;6246077;28;20052;-76
2021/04/30 12:11:35;;;;;;;29.88;4.15;;;21.10;44.80;;;;;;6246932;28;20106;-76
2021/04/30 12:15:02;;;;;;;27.58;3.67;;;21.10;45.10;;;;;;6248437;28;20075;-76
2021/04/30 12:18:04;;;;;;;23.10;3.42;;;21.10;45.40;;;;;;6246632;28;20496;-73
2021/04/30 12:21:05;;;;;;;21.73;3.22;;;21.10;45.40;;;;;;6241182;28;20038;-75
2021/04/30 12:24:07;;;;;;;13.75;3.45;;;21.10;45.50;;;;;;6246305;28;20503;-76
2021/04/30 12:27:08;;;;;;;20.52;3.22;;;21.10;45.60;;;;;;6247243;28;20569;-76
2021/04/30 12:30:09;;;;;;;19.95;3.33;;;21.10;45.60;;;;;;6246349;28;20033;-77
2021/04/30 12:33:23;;;;;;;13.23;2.85;;;21.10;45.60;;;;;;6245269;28;20374;-76
2021/04/30 12:36:31;;;;;;;15.95;3.78;;;21.10;45.70;;;;;;6246807;28;20076;-76
2021/04/30 12:39:31;;;;;;;12.77;2.85;;;21.10;45.70;;;;;;6245392;28;20497;-76
2021/04/30 12:42:49;;;;;;;14.90;2.97;;;21.10;45.80;;;;;;6244852;28;20029;-75
2021/04/30 12:45:50;;;;;;;12.80;2.65;;;21.10;45.80;;;;;;6244815;28;20419;-76
2021/04/30 12:48:56;;;;;;;12.02;2.83;;;21.00;45.70;;;;;;6247412;28;20079;-76
2021/04/30 12:51:57;;;;;;;9.10;2.58;;;21.00;45.80;;;;;;6245215;28;20021;-76
2021/04/30 12:54:57;;;;;;;13.98;2.45;;;21.00;45.80;;;;;;6244225;28;20052;-75
2021/04/30 12:58:12;;;;;;;14.35;2.40;;;21.00;45.80;;;;;;6243832;28;20025;-75
2021/04/30 13:01:18;;;;;;;13.10;2.60;;;21.10;45.90;;;;;;6244681;28;20113;-76
2021/04/30 13:04:24;;;;;;;10.45;2.63;;;21.00;45.80;;;;;;6245279;28;20272;-76
2021/04/30 13:07:25;;;;;;;10.95;2.47;;;21.10;45.90;;;;;;6244376;28;20468;-76
2021/04/30 13:10:27;;;;;;;7.90;2.17;;;21.00;45.80;;;;;;6243322;28;20045;-76
2021/04/30 13:13:29;;;;;;;8.85;1.90;;;21.10;46.00;;;;;;6245706;28;20518;-76
2021/04/30 13:16:44;;;;;;;9.70;1.98;;;21.10;45.90;;;;;;6245698;28;20498;-77
2021/04/30 13:19:45;;;;;;;5.10;1.70;;;21.00;45.90;;;;;;6246429;28;20040;-75
2021/04/30 13:22:45;;;;;;;10.75;2.03;;;21.00;46.00;;;;;;6243973;28;20029;-76
2021/04/30 13:25:51;;;;;;;10.80;2.30;;;21.00;45.90;;;;;;6245292;28;20021;-77
2021/04/30 13:29:14;;;;;;;8.35;2.35;;;21.00;45.90;;;;;;6246858;28;20022;-76
2021/04/30 13:32:22;;;;;;;11.88;1.95;;;21.00;46.00;;;;;;6242993;28;20033;-76
2021/04/30 13:35:26;;;;;;;10.13;2.25;;;21.00;44.50;;;;;;6244415;28;20046;-76
2021/04/30 13:38:28;;;;;;;6.50;2.03;;;21.00;45.10;;;;;;6245142;28;20044;-76
2021/04/30 13:41:36;;;;;;;9.07;2.25;;;21.00;45.40;;;;;;6244454;28;20048;-76
2021/04/30 13:44:36;;;;;;;7.55;2.30;;;21.10;45.20;;;;;;6223644;28;20022;-76
2021/04/30 13:47:46;;;;;;;10.50;2.13;;;21.00;45.20;;;;;;6243696;28;20033;-76
2021/04/30 13:50:46;;;;;;;4.05;1.70;;;21.10;45.70;;;;;;6244809;28;20721;-76
2021/04/30 13:53:47;;;;;;;8.80;2.38;;;21.00;45.70;;;;;;6244708;28;20037;-76
2021/04/30 13:56:48;;;;;;;5.50;1.95;;;21.10;45.70;;;;;;6244450;28;20044;-76
2021/04/30 13:59:48;;;;;;;9.55;2.17;;;21.00;45.70;;;;;;6242788;28;20045;-76
2021/04/30 14:02:51;;;;;;;6.50;1.77;;;21.00;45.70;;;;;;6243696;28;20029;-76
2021/04/30 14:05:51;;;;;;;7.57;1.73;;;21.10;45.80;;;;;;6244102;28;20029;-76
2021/04/30 14:08:53;;;;;;;8.77;2.38;;;21.00;45.80;;;;;;6244429;28;20057;-76
2021/04/30 14:11:54;;;;;;;4.55;1.83;;;21.00;45.80;;;;;;6241992;28;20029;-76
2021/04/30 14:14:55;;;;;;;11.07;2.22;;;21.10;45.90;;;;;;6247584;28;20033;-76
2021/04/30 14:17:56;;;;;;;4.65;1.65;;;21.10;45.90;;;;;;6244037;28;20045;-77
2021/04/30 14:20:56;;;;;;;3.25;1.58;;;21.10;45.90;;;;;;6244367;28;20123;-77
2021/04/30 14:23:58;;;;;;;6.60;1.48;;;21.00;45.80;;;;;;6242755;28;20028;-76
2021/04/30 14:26:59;;;;;;;3.88;1.55;;;21.00;45.90;;;;;;6244306;28;20033;-77
2021/04/30 14:29:59;;;;;;;5.43;1.55;;;21.00;45.90;;;;;;6244413;28;20476;-77
2021/04/30 14:33:00;;;;;;;4.82;1.60;;;21.00;46.00;;;;;;6243122;28;20075;-77
2021/04/30 14:36:00;;;;;;;6.07;1.52;;;21.00;45.90;;;;;;6242389;28;20199;-76
2021/04/30 14:39:02;;;;;;;2.80;1.48;;;21.00;46.00;;;;;;6244112;28;20037;-76
2021/04/30 14:42:03;;;;;;;6.22;1.60;;;21.10;46.10;;;;;;6242605;28;20021;-76
2021/04/30 14:45:04;;;;;;;2.90;1.20;;;21.00;46.00;;;;;;6244385;28;20057;-76
2021/04/30 14:48:06;;;;;;;2.30;1.33;;;21.00;46.00;;;;;;6242681;28;20395;-76
2021/04/30 14:51:07;;;;;;;2.17;1.40;;;21.00;46.10;;;;;;6243563;28;20026;-76
2021/04/30 14:54:08;;;;;;;4.97;1.20;;;21.00;46.10;;;;;;6241403;28;20388;-76
2021/04/30 14:57:10;;;;;;;5.15;1.40;;;21.00;46.10;;;;;;6243909;28;20025;-76
2021/04/30 15:00:11;;;;;;;5.10;1.40;;;21.00;46.10;;;;;;6241083;28;20036;-76
2021/04/30 15:03:12;;;;;;;5.45;1.60;;;21.00;46.10;;;;;;6241750;28;20029;-76
2021/04/30 15:06:13;;;;;;;1.63;1.08;;;21.00;46.20;;;;;;6243232;28;20037;-76
2021/04/30 15:09:14;;;;;;;2.70;1.27;;;21.10;46.20;;;;;;6243395;28;20112;-77
2021/04/30 15:12:15;;;;;;;2.88;1.63;;;21.10;46.20;;;;;;6242307;28;20082;-76
2021/04/30 15:15:16;;;;;;;2.17;1.33;;;21.00;46.20;;;;;;6244106;28;20040;-76
2021/04/30 15:18:18;;;;;;;2.60;1.23;;;21.00;46.20;;;;;;6243468;28;20380;-76
2021/04/30 15:21:18;;;;;;;2.05;1.30;;;21.10;46.20;;;;;;6242736;28;20081;-76
2021/04/30 15:24:19;;;;;;;2.70;1.15;;;21.00;46.20;;;;;;6242408;28;20160;-75
2021/04/30 15:27:19;;;;;;;5.88;1.83;;;21.00;46.20;;;;;;6243850;28;20103;-76
2021/04/30 15:30:21;;;;;;;3.35;0.90;;;21.00;46.20;;;;;;6243354;28;20345;-76
2021/04/30 15:33:26;;;;;;;3.10;1.20;;;21.00;46.20;;;;;;6241069;28;20080;-76
2021/04/30 15:36:27;;;;;;;4.33;1.53;;;21.10;46.30;;;;;;6242913;28;20030;-75
2021/04/30 15:39:27;;;;;;;3.75;1.35;;;21.10;46.30;;;;;;6243403;28;20659;-76
2021/04/30 15:42:28;;;;;;;1.63;1.10;;;21.00;46.30;;;;;;6242765;28;20026;-76
2021/04/30 15:45:29;;;;;;;2.50;1.30;;;21.00;46.30;;;;;;6243581;28;20032;-76
2021/04/30 15:48:29;;;;;;;3.33;1.27;;;21.00;46.30;;;;;;6243283;28;20040;-76